sensor_id;sensor_type;location;lat;lon;timestamp;temperature;humidity
80937;DHT22;70395;51.382;7.074;2024-01-06T00:01:50;9.40;73.50
80937;DHT22;70395;51.382;7.074;2024-01-06T00:04:15;9.40;73.50
80937;DHT22;70395;51.382;7.074;2024-01-06T00:06:41;9.40;73.40
80937;DHT22;70395;51.382;7.074;2024-01-06T00:09:07;9.40;73.40
80937;DHT22;70395;51.382;7.074;2024-01-06T00:11:33;9.40;73.40
80937;DHT22;70395;51.382;7.074;2024-01-06T00:13:59;9.40;73.40
80937;DHT22;70395;51.382;7.074;2024-01-06T00:16:24;9.40;73.40
80937;DHT22;70395;51.382;7.074;2024-01-06T00:18:50;9.40;73.30
80937;DHT22;70395;51.382;7.074;2024-01-06T00:21:16;9.40;73.30
80937;DHT22;70395;51.382;7.074;2024-01-06T00:23:42;9.40;73.30
80937;DHT22;70395;51.382;7.074;2024-01-06T00:26:09;9.40;73.30
80937;DHT22;70395;51.382;7.074;2024-01-06T00:28:36;9.40;73.30
80937;DHT22;70395;51.382;7.074;2024-01-06T00:31:01;9.40;73.40
80937;DHT22;70395;51.382;7.074;2024-01-06T00:33:27;9.40;73.30
80937;DHT22;70395;51.382;7.074;2024-01-06T00:35:53;9.40;73.30
80937;DHT22;70395;51.382;7.074;2024-01-06T00:38:21;9.50;73.40
80937;DHT22;70395;51.382;7.074;2024-01-06T00:40:46;9.50;73.30
80937;DHT22;70395;51.382;7.074;2024-01-06T00:43:12;9.40;73.20
80937;DHT22;70395;51.382;7.074;2024-01-06T00:45:38;9.50;73.30
80937;DHT22;70395;51.382;7.074;2024-01-06T00:48:04;9.50;73.30
80937;DHT22;70395;51.382;7.074;2024-01-06T00:50:30;9.50;73.30
80937;DHT22;70395;51.382;7.074;2024-01-06T00:52:56;9.40;73.10
80937;DHT22;70395;51.382;7.074;2024-01-06T00:55:22;9.50;73.20
80937;DHT22;70395;51.382;7.074;2024-01-06T00:57:49;9.50;73.10
80937;DHT22;70395;51.382;7.074;2024-01-06T01:00:15;9.50;73.20
80937;DHT22;70395;51.382;7.074;2024-01-06T01:02:41;9.50;73.10
80937;DHT22;70395;51.382;7.074;2024-01-06T01:05:07;9.50;73.00
80937;DHT22;70395;51.382;7.074;2024-01-06T01:07:33;9.50;73.10
80937;DHT22;70395;51.382;7.074;2024-01-06T01:10:00;9.50;73.10
80937;DHT22;70395;51.382;7.074;2024-01-06T01:12:26;9.50;73.10
80937;DHT22;70395;51.382;7.074;2024-01-06T01:14:52;9.50;73.00
80937;DHT22;70395;51.382;7.074;2024-01-06T01:17:19;9.50;73.10
80937;DHT22;70395;51.382;7.074;2024-01-06T01:19:45;9.50;73.10
80937;DHT22;70395;51.382;7.074;2024-01-06T01:22:11;9.50;73.30
80937;DHT22;70395;51.382;7.074;2024-01-06T01:24:38;9.50;73.20
80937;DHT22;70395;51.382;7.074;2024-01-06T01:27:04;9.50;73.20
80937;DHT22;70395;51.382;7.074;2024-01-06T01:29:30;9.50;73.30
80937;DHT22;70395;51.382;7.074;2024-01-06T01:31:56;9.50;73.30
80937;DHT22;70395;51.382;7.074;2024-01-06T01:34:22;9.50;73.30
80937;DHT22;70395;51.382;7.074;2024-01-06T01:36:47;9.50;73.40
80937;DHT22;70395;51.382;7.074;2024-01-06T01:39:13;9.50;73.50
80937;DHT22;70395;51.382;7.074;2024-01-06T01:41:40;9.50;73.50
80937;DHT22;70395;51.382;7.074;2024-01-06T01:44:06;9.50;73.50
80937;DHT22;70395;51.382;7.074;2024-01-06T01:46:32;9.50;73.50
80937;DHT22;70395;51.382;7.074;2024-01-06T01:49:00;9.50;73.60
80937;DHT22;70395;51.382;7.074;2024-01-06T01:51:29;9.50;73.60
80937;DHT22;70395;51.382;7.074;2024-01-06T01:54:01;9.40;73.50
80937;DHT22;70395;51.382;7.074;2024-01-06T01:56:30;9.50;73.70
80937;DHT22;70395;51.382;7.074;2024-01-06T01:59:03;9.40;73.60
80937;DHT22;70395;51.382;7.074;2024-01-06T02:01:33;9.50;73.70
80937;DHT22;70395;51.382;7.074;2024-01-06T02:03:59;9.50;73.80
80937;DHT22;70395;51.382;7.074;2024-01-06T02:06:25;9.50;73.80
80937;DHT22;70395;51.382;7.074;2024-01-06T02:08:51;9.50;73.90
80937;DHT22;70395;51.382;7.074;2024-01-06T02:11:16;9.50;73.90
80937;DHT22;70395;51.382;7.074;2024-01-06T02:13:42;9.50;74.60
80937;DHT22;70395;51.382;7.074;2024-01-06T02:16:08;9.50;73.90
80937;DHT22;70395;51.382;7.074;2024-01-06T02:18:34;9.50;73.90
80937;DHT22;70395;51.382;7.074;2024-01-06T02:21:02;9.50;73.90
80937;DHT22;70395;51.382;7.074;2024-01-06T02:23:29;9.50;73.80
80937;DHT22;70395;51.382;7.074;2024-01-06T02:25:56;9.50;73.80
80937;DHT22;70395;51.382;7.074;2024-01-06T02:28:22;9.50;73.90
80937;DHT22;70395;51.382;7.074;2024-01-06T02:30:48;9.60;74.00
80937;DHT22;70395;51.382;7.074;2024-01-06T02:33:14;9.50;73.90
80937;DHT22;70395;51.382;7.074;2024-01-06T02:35:40;9.50;73.80
80937;DHT22;70395;51.382;7.074;2024-01-06T02:38:07;9.50;73.80
80937;DHT22;70395;51.382;7.074;2024-01-06T02:40:33;9.50;73.80
80937;DHT22;70395;51.382;7.074;2024-01-06T02:42:59;9.50;73.80
80937;DHT22;70395;51.382;7.074;2024-01-06T02:45:25;9.50;73.80
80937;DHT22;70395;51.382;7.074;2024-01-06T02:47:51;9.50;73.70
80937;DHT22;70395;51.382;7.074;2024-01-06T02:50:17;9.60;73.80
80937;DHT22;70395;51.382;7.074;2024-01-06T02:52:44;9.50;73.80
80937;DHT22;70395;51.382;7.074;2024-01-06T02:55:13;9.60;73.90
80937;DHT22;70395;51.382;7.074;2024-01-06T02:57:39;9.50;73.80
80937;DHT22;70395;51.382;7.074;2024-01-06T03:00:07;9.60;73.70
80937;DHT22;70395;51.382;7.074;2024-01-06T03:02:33;9.60;73.80
80937;DHT22;70395;51.382;7.074;2024-01-06T03:05:01;9.60;73.80
80937;DHT22;70395;51.382;7.074;2024-01-06T03:07:27;9.60;73.80
80937;DHT22;70395;51.382;7.074;2024-01-06T03:09:53;9.60;73.80
80937;DHT22;70395;51.382;7.074;2024-01-06T03:12:19;9.60;73.80
80937;DHT22;70395;51.382;7.074;2024-01-06T03:14:45;9.60;73.80
80937;DHT22;70395;51.382;7.074;2024-01-06T03:17:10;9.60;73.80
80937;DHT22;70395;51.382;7.074;2024-01-06T03:19:36;9.60;73.80
80937;DHT22;70395;51.382;7.074;2024-01-06T03:22:02;9.60;73.70
80937;DHT22;70395;51.382;7.074;2024-01-06T03:24:28;9.60;73.80
80937;DHT22;70395;51.382;7.074;2024-01-06T03:26:54;9.60;73.80
80937;DHT22;70395;51.382;7.074;2024-01-06T03:29:20;9.60;73.90
80937;DHT22;70395;51.382;7.074;2024-01-06T03:31:46;9.60;74.00
80937;DHT22;70395;51.382;7.074;2024-01-06T03:34:12;9.60;74.00
80937;DHT22;70395;51.382;7.074;2024-01-06T03:36:39;9.60;74.10
80937;DHT22;70395;51.382;7.074;2024-01-06T03:39:05;9.60;74.00
80937;DHT22;70395;51.382;7.074;2024-01-06T03:41:31;9.60;73.80
80937;DHT22;70395;51.382;7.074;2024-01-06T03:43:58;9.60;74.50
80937;DHT22;70395;51.382;7.074;2024-01-06T03:46:24;9.60;73.80
80937;DHT22;70395;51.382;7.074;2024-01-06T03:48:50;9.60;73.80
80937;DHT22;70395;51.382;7.074;2024-01-06T03:51:15;9.60;73.80
80937;DHT22;70395;51.382;7.074;2024-01-06T03:53:41;9.60;73.80
80937;DHT22;70395;51.382;7.074;2024-01-06T03:56:07;9.70;73.80
80937;DHT22;70395;51.382;7.074;2024-01-06T03:58:34;9.70;74.50
80937;DHT22;70395;51.382;7.074;2024-01-06T04:01:00;9.70;73.50
80937;DHT22;70395;51.382;7.074;2024-01-06T04:03:26;9.70;73.30
80937;DHT22;70395;51.382;7.074;2024-01-06T04:05:52;9.70;72.10
80937;DHT22;70395;51.382;7.074;2024-01-06T04:08:18;9.60;71.80
80937;DHT22;70395;51.382;7.074;2024-01-06T04:10:44;9.60;71.20
80937;DHT22;70395;51.382;7.074;2024-01-06T04:13:11;9.50;70.80
80937;DHT22;70395;51.382;7.074;2024-01-06T04:15:37;9.50;70.70
80937;DHT22;70395;51.382;7.074;2024-01-06T04:18:04;9.40;70.70
80937;DHT22;70395;51.382;7.074;2024-01-06T04:20:32;9.30;70.20
80937;DHT22;70395;51.382;7.074;2024-01-06T04:22:58;9.30;70.50
80937;DHT22;70395;51.382;7.074;2024-01-06T04:25:24;9.20;70.50
80937;DHT22;70395;51.382;7.074;2024-01-06T04:27:50;9.20;70.40
80937;DHT22;70395;51.382;7.074;2024-01-06T04:30:17;9.10;70.50
80937;DHT22;70395;51.382;7.074;2024-01-06T04:32:43;9.10;70.70
80937;DHT22;70395;51.382;7.074;2024-01-06T04:35:09;9.00;70.30
80937;DHT22;70395;51.382;7.074;2024-01-06T04:37:35;9.00;70.60
80937;DHT22;70395;51.382;7.074;2024-01-06T04:40:01;9.00;70.60
80937;DHT22;70395;51.382;7.074;2024-01-06T04:42:27;9.00;70.70
80937;DHT22;70395;51.382;7.074;2024-01-06T04:44:53;8.90;70.70
80937;DHT22;70395;51.382;7.074;2024-01-06T04:47:19;8.90;70.70
80937;DHT22;70395;51.382;7.074;2024-01-06T04:49:45;8.80;70.80
80937;DHT22;70395;51.382;7.074;2024-01-06T04:52:11;8.80;70.90
80937;DHT22;70395;51.382;7.074;2024-01-06T04:54:37;8.80;70.80
80937;DHT22;70395;51.382;7.074;2024-01-06T04:57:03;8.80;70.70
80937;DHT22;70395;51.382;7.074;2024-01-06T04:59:29;8.70;70.30
80937;DHT22;70395;51.382;7.074;2024-01-06T05:01:57;8.70;70.10
80937;DHT22;70395;51.382;7.074;2024-01-06T05:04:24;8.70;70.00
80937;DHT22;70395;51.382;7.074;2024-01-06T05:06:51;8.70;70.00
80937;DHT22;70395;51.382;7.074;2024-01-06T05:09:18;8.60;70.10
80937;DHT22;70395;51.382;7.074;2024-01-06T05:11:44;8.60;70.30
80937;DHT22;70395;51.382;7.074;2024-01-06T05:14:10;8.60;70.40
80937;DHT22;70395;51.382;7.074;2024-01-06T05:16:36;8.60;70.50
80937;DHT22;70395;51.382;7.074;2024-01-06T05:19:02;8.60;70.70
80937;DHT22;70395;51.382;7.074;2024-01-06T05:21:29;8.50;70.80
80937;DHT22;70395;51.382;7.074;2024-01-06T05:23:55;8.50;70.80
80937;DHT22;70395;51.382;7.074;2024-01-06T05:26:21;8.50;70.70
80937;DHT22;70395;51.382;7.074;2024-01-06T05:28:47;8.60;71.00
80937;DHT22;70395;51.382;7.074;2024-01-06T05:31:12;8.50;71.10
80937;DHT22;70395;51.382;7.074;2024-01-06T05:33:39;8.50;70.90
80937;DHT22;70395;51.382;7.074;2024-01-06T05:36:05;8.50;71.00
80937;DHT22;70395;51.382;7.074;2024-01-06T05:38:31;8.50;71.10
80937;DHT22;70395;51.382;7.074;2024-01-06T05:40:57;8.40;71.20
80937;DHT22;70395;51.382;7.074;2024-01-06T05:43:23;8.40;71.30
80937;DHT22;70395;51.382;7.074;2024-01-06T05:45:48;8.40;71.40
80937;DHT22;70395;51.382;7.074;2024-01-06T05:48:14;8.40;71.20
80937;DHT22;70395;51.382;7.074;2024-01-06T05:50:40;8.40;71.10
80937;DHT22;70395;51.382;7.074;2024-01-06T05:53:07;8.40;71.20
80937;DHT22;70395;51.382;7.074;2024-01-06T05:55:33;8.40;71.20
80937;DHT22;70395;51.382;7.074;2024-01-06T05:57:59;8.40;71.30
80937;DHT22;70395;51.382;7.074;2024-01-06T06:00:26;8.40;71.40
80937;DHT22;70395;51.382;7.074;2024-01-06T06:02:52;8.40;71.50
80937;DHT22;70395;51.382;7.074;2024-01-06T06:05:18;8.40;71.60
80937;DHT22;70395;51.382;7.074;2024-01-06T06:07:45;8.40;71.50
80937;DHT22;70395;51.382;7.074;2024-01-06T06:10:11;8.40;71.40
80937;DHT22;70395;51.382;7.074;2024-01-06T06:12:39;8.40;71.20
80937;DHT22;70395;51.382;7.074;2024-01-06T06:15:05;8.40;71.40
80937;DHT22;70395;51.382;7.074;2024-01-06T06:17:32;8.40;71.40
80937;DHT22;70395;51.382;7.074;2024-01-06T06:19:58;8.40;71.40
80937;DHT22;70395;51.382;7.074;2024-01-06T06:22:28;8.40;71.30
80937;DHT22;70395;51.382;7.074;2024-01-06T06:24:57;8.40;71.40
80937;DHT22;70395;51.382;7.074;2024-01-06T06:27:24;8.40;71.40
80937;DHT22;70395;51.382;7.074;2024-01-06T06:29:52;8.40;71.50
80937;DHT22;70395;51.382;7.074;2024-01-06T06:32:18;8.40;71.50
80937;DHT22;70395;51.382;7.074;2024-01-06T06:34:44;8.40;71.40
80937;DHT22;70395;51.382;7.074;2024-01-06T06:37:10;8.40;71.10
80937;DHT22;70395;51.382;7.074;2024-01-06T06:39:36;8.40;71.00
80937;DHT22;70395;51.382;7.074;2024-01-06T06:42:02;8.40;71.10
80937;DHT22;70395;51.382;7.074;2024-01-06T06:44:29;8.40;70.90
80937;DHT22;70395;51.382;7.074;2024-01-06T06:46:55;8.40;70.90
80937;DHT22;70395;51.382;7.074;2024-01-06T06:49:22;8.40;71.00
80937;DHT22;70395;51.382;7.074;2024-01-06T06:51:48;8.40;71.20
80937;DHT22;70395;51.382;7.074;2024-01-06T06:54:14;8.40;71.20
80937;DHT22;70395;51.382;7.074;2024-01-06T06:56:41;8.30;71.00
80937;DHT22;70395;51.382;7.074;2024-01-06T06:59:08;8.30;70.90
80937;DHT22;70395;51.382;7.074;2024-01-06T07:01:33;8.30;70.70
80937;DHT22;70395;51.382;7.074;2024-01-06T07:04:01;8.30;70.70
80937;DHT22;70395;51.382;7.074;2024-01-06T07:06:27;8.30;70.90
80937;DHT22;70395;51.382;7.074;2024-01-06T07:08:54;8.30;70.90
80937;DHT22;70395;51.382;7.074;2024-01-06T07:11:21;8.30;71.00
80937;DHT22;70395;51.382;7.074;2024-01-06T07:13:47;8.30;71.00
80937;DHT22;70395;51.382;7.074;2024-01-06T07:16:13;8.40;71.40
80937;DHT22;70395;51.382;7.074;2024-01-06T07:18:39;8.30;71.40
80937;DHT22;70395;51.382;7.074;2024-01-06T07:21:05;8.30;70.80
80937;DHT22;70395;51.382;7.074;2024-01-06T07:23:34;8.30;70.90
80937;DHT22;70395;51.382;7.074;2024-01-06T07:26:00;8.20;70.50
80937;DHT22;70395;51.382;7.074;2024-01-06T07:28:27;8.20;70.70
80937;DHT22;70395;51.382;7.074;2024-01-06T07:30:53;8.20;71.00
80937;DHT22;70395;51.382;7.074;2024-01-06T07:33:19;8.20;71.20
80937;DHT22;70395;51.382;7.074;2024-01-06T07:35:44;8.20;71.10
80937;DHT22;70395;51.382;7.074;2024-01-06T07:38:11;8.20;70.90
80937;DHT22;70395;51.382;7.074;2024-01-06T07:40:37;8.20;70.90
80937;DHT22;70395;51.382;7.074;2024-01-06T07:43:04;8.20;70.90
80937;DHT22;70395;51.382;7.074;2024-01-06T07:45:31;8.20;70.90
80937;DHT22;70395;51.382;7.074;2024-01-06T07:59:01;8.20;70.40
80937;DHT22;70395;51.382;7.074;2024-01-06T08:01:27;8.20;70.50
80937;DHT22;70395;51.382;7.074;2024-01-06T08:03:53;8.20;70.30
80937;DHT22;70395;51.382;7.074;2024-01-06T08:06:19;8.20;70.20
80937;DHT22;70395;51.382;7.074;2024-01-06T08:08:45;8.20;70.50
80937;DHT22;70395;51.382;7.074;2024-01-06T08:11:11;8.20;70.70
80937;DHT22;70395;51.382;7.074;2024-01-06T08:13:40;8.20;70.80
80937;DHT22;70395;51.382;7.074;2024-01-06T08:16:06;8.10;70.80
80937;DHT22;70395;51.382;7.074;2024-01-06T08:18:32;8.10;70.80
80937;DHT22;70395;51.382;7.074;2024-01-06T08:20:58;8.10;70.80
80937;DHT22;70395;51.382;7.074;2024-01-06T08:23:24;8.10;71.20
80937;DHT22;70395;51.382;7.074;2024-01-06T08:25:50;8.00;71.10
80937;DHT22;70395;51.382;7.074;2024-01-06T08:28:15;8.00;71.10
80937;DHT22;70395;51.382;7.074;2024-01-06T08:30:41;8.00;71.00
80937;DHT22;70395;51.382;7.074;2024-01-06T08:33:08;8.00;71.00
80937;DHT22;70395;51.382;7.074;2024-01-06T08:35:34;7.90;71.00
80937;DHT22;70395;51.382;7.074;2024-01-06T08:38:08;7.90;71.10
80937;DHT22;70395;51.382;7.074;2024-01-06T08:40:35;7.90;72.00
80937;DHT22;70395;51.382;7.074;2024-01-06T08:43:02;7.90;71.30
80937;DHT22;70395;51.382;7.074;2024-01-06T08:45:28;7.90;71.30
80937;DHT22;70395;51.382;7.074;2024-01-06T08:47:54;7.90;71.40
80937;DHT22;70395;51.382;7.074;2024-01-06T08:50:20;7.80;71.60
80937;DHT22;70395;51.382;7.074;2024-01-06T08:52:45;7.90;72.20
80937;DHT22;70395;51.382;7.074;2024-01-06T08:55:11;7.90;72.50
80937;DHT22;70395;51.382;7.074;2024-01-06T08:57:37;7.90;71.80
80937;DHT22;70395;51.382;7.074;2024-01-06T09:00:06;7.90;71.80
80937;DHT22;70395;51.382;7.074;2024-01-06T09:02:34;7.90;72.20
80937;DHT22;70395;51.382;7.074;2024-01-06T09:05:00;7.90;72.20
80937;DHT22;70395;51.382;7.074;2024-01-06T09:07:26;7.90;71.50
80937;DHT22;70395;51.382;7.074;2024-01-06T09:09:52;7.90;71.30
80937;DHT22;70395;51.382;7.074;2024-01-06T09:12:17;7.80;71.20
80937;DHT22;70395;51.382;7.074;2024-01-06T09:14:43;7.80;71.30
80937;DHT22;70395;51.382;7.074;2024-01-06T09:17:09;7.90;71.40
80937;DHT22;70395;51.382;7.074;2024-01-06T09:19:35;7.80;71.20
80937;DHT22;70395;51.382;7.074;2024-01-06T09:22:01;7.80;71.20
80937;DHT22;70395;51.382;7.074;2024-01-06T09:24:26;7.70;71.10
80937;DHT22;70395;51.382;7.074;2024-01-06T09:26:52;7.70;71.20
80937;DHT22;70395;51.382;7.074;2024-01-06T09:29:19;7.70;71.20
80937;DHT22;70395;51.382;7.074;2024-01-06T09:31:44;7.80;71.30
80937;DHT22;70395;51.382;7.074;2024-01-06T09:34:10;7.70;71.20
80937;DHT22;70395;51.382;7.074;2024-01-06T09:36:37;7.70;71.40
80937;DHT22;70395;51.382;7.074;2024-01-06T09:39:03;7.80;72.00
80937;DHT22;70395;51.382;7.074;2024-01-06T09:41:33;7.70;72.20
80937;DHT22;70395;51.382;7.074;2024-01-06T09:43:59;7.70;71.80
80937;DHT22;70395;51.382;7.074;2024-01-06T09:46:27;7.70;71.50
80937;DHT22;70395;51.382;7.074;2024-01-06T09:48:57;7.70;71.30
80937;DHT22;70395;51.382;7.074;2024-01-06T09:51:24;7.70;71.10
80937;DHT22;70395;51.382;7.074;2024-01-06T09:53:59;7.80;71.30
80937;DHT22;70395;51.382;7.074;2024-01-06T09:56:27;7.70;71.90
80937;DHT22;70395;51.382;7.074;2024-01-06T09:58:55;7.70;70.90
80937;DHT22;70395;51.382;7.074;2024-01-06T10:01:21;7.80;71.10
80937;DHT22;70395;51.382;7.074;2024-01-06T10:03:47;7.70;70.90
80937;DHT22;70395;51.382;7.074;2024-01-06T10:06:14;7.70;71.00
80937;DHT22;70395;51.382;7.074;2024-01-06T10:08:58;7.70;71.10
80937;DHT22;70395;51.382;7.074;2024-01-06T10:11:25;7.70;70.90
80937;DHT22;70395;51.382;7.074;2024-01-06T10:13:54;7.70;71.00
80937;DHT22;70395;51.382;7.074;2024-01-06T10:16:22;7.70;71.20
80937;DHT22;70395;51.382;7.074;2024-01-06T10:18:48;7.70;71.10
80937;DHT22;70395;51.382;7.074;2024-01-06T10:21:14;7.70;71.10
80937;DHT22;70395;51.382;7.074;2024-01-06T10:23:43;7.70;70.80
80937;DHT22;70395;51.382;7.074;2024-01-06T10:26:13;7.70;70.60
80937;DHT22;70395;51.382;7.074;2024-01-06T10:28:39;7.70;70.70
80937;DHT22;70395;51.382;7.074;2024-01-06T10:31:08;7.70;71.00
80937;DHT22;70395;51.382;7.074;2024-01-06T10:33:34;7.70;71.30
80937;DHT22;70395;51.382;7.074;2024-01-06T10:36:01;7.70;71.50
80937;DHT22;70395;51.382;7.074;2024-01-06T10:38:30;7.70;71.40
80937;DHT22;70395;51.382;7.074;2024-01-06T10:41:00;7.70;71.10
80937;DHT22;70395;51.382;7.074;2024-01-06T10:43:32;7.70;70.90
80937;DHT22;70395;51.382;7.074;2024-01-06T10:46:06;7.70;70.90
80937;DHT22;70395;51.382;7.074;2024-01-06T10:48:37;7.60;70.70
80937;DHT22;70395;51.382;7.074;2024-01-06T10:51:08;7.60;70.70
80937;DHT22;70395;51.382;7.074;2024-01-06T10:53:35;7.60;70.80
80937;DHT22;70395;51.382;7.074;2024-01-06T10:56:03;7.70;70.90
80937;DHT22;70395;51.382;7.074;2024-01-06T10:58:30;7.60;70.70
80937;DHT22;70395;51.382;7.074;2024-01-06T11:00:58;7.50;71.30
80937;DHT22;70395;51.382;7.074;2024-01-06T11:03:28;7.50;70.60
80937;DHT22;70395;51.382;7.074;2024-01-06T11:05:54;7.50;70.70
80937;DHT22;70395;51.382;7.074;2024-01-06T11:08:22;7.50;70.80
80937;DHT22;70395;51.382;7.074;2024-01-06T11:10:51;7.40;70.70
80937;DHT22;70395;51.382;7.074;2024-01-06T11:13:22;7.40;70.70
80937;DHT22;70395;51.382;7.074;2024-01-06T11:15:52;7.30;70.60
80937;DHT22;70395;51.382;7.074;2024-01-06T11:18:38;7.30;70.80
80937;DHT22;70395;51.382;7.074;2024-01-06T11:21:15;7.20;70.90
80937;DHT22;70395;51.382;7.074;2024-01-06T11:26:32;7.20;70.80
80937;DHT22;70395;51.382;7.074;2024-01-06T11:29:00;7.20;70.80
80937;DHT22;70395;51.382;7.074;2024-01-06T11:31:32;7.20;70.90
80937;DHT22;70395;51.382;7.074;2024-01-06T11:34:12;7.10;70.90
80937;DHT22;70395;51.382;7.074;2024-01-06T11:36:45;7.10;70.70
80937;DHT22;70395;51.382;7.074;2024-01-06T11:39:35;7.10;70.80
80937;DHT22;70395;51.382;7.074;2024-01-06T11:42:04;7.10;70.70
80937;DHT22;70395;51.382;7.074;2024-01-06T11:44:34;7.10;70.70
80937;DHT22;70395;51.382;7.074;2024-01-06T11:47:02;7.10;70.70
80937;DHT22;70395;51.382;7.074;2024-01-06T11:49:30;7.10;70.70
80937;DHT22;70395;51.382;7.074;2024-01-06T11:51:57;7.10;70.60
80937;DHT22;70395;51.382;7.074;2024-01-06T11:54:23;7.00;70.50
80937;DHT22;70395;51.382;7.074;2024-01-06T11:56:49;7.00;70.60
80937;DHT22;70395;51.382;7.074;2024-01-06T11:59:15;7.00;70.60
80937;DHT22;70395;51.382;7.074;2024-01-06T12:01:41;7.00;70.70
80937;DHT22;70395;51.382;7.074;2024-01-06T12:04:08;7.00;70.90
80937;DHT22;70395;51.382;7.074;2024-01-06T12:06:39;7.00;71.00
80937;DHT22;70395;51.382;7.074;2024-01-06T12:09:11;7.00;71.00
80937;DHT22;70395;51.382;7.074;2024-01-06T12:11:41;7.00;70.90
80937;DHT22;70395;51.382;7.074;2024-01-06T12:14:10;7.00;70.90
80937;DHT22;70395;51.382;7.074;2024-01-06T12:16:36;7.00;70.90
80937;DHT22;70395;51.382;7.074;2024-01-06T12:19:02;7.00;70.90
80937;DHT22;70395;51.382;7.074;2024-01-06T12:21:29;7.00;70.80
80937;DHT22;70395;51.382;7.074;2024-01-06T12:24:18;7.00;70.70
80937;DHT22;70395;51.382;7.074;2024-01-06T12:26:46;7.00;70.60
80937;DHT22;70395;51.382;7.074;2024-01-06T12:29:13;7.00;70.70
80937;DHT22;70395;51.382;7.074;2024-01-06T12:31:40;7.00;70.50
80937;DHT22;70395;51.382;7.074;2024-01-06T12:34:07;7.00;70.60
80937;DHT22;70395;51.382;7.074;2024-01-06T12:36:41;6.90;70.50
80937;DHT22;70395;51.382;7.074;2024-01-06T12:39:12;6.90;70.40
80937;DHT22;70395;51.382;7.074;2024-01-06T12:41:41;6.90;70.50
80937;DHT22;70395;51.382;7.074;2024-01-06T12:44:08;6.80;70.30
80937;DHT22;70395;51.382;7.074;2024-01-06T12:46:35;6.80;70.20
80937;DHT22;70395;51.382;7.074;2024-01-06T12:49:01;6.80;70.10
80937;DHT22;70395;51.382;7.074;2024-01-06T12:51:28;6.70;70.00
80937;DHT22;70395;51.382;7.074;2024-01-06T12:53:54;6.70;69.90
80937;DHT22;70395;51.382;7.074;2024-01-06T12:56:20;6.70;69.90
80937;DHT22;70395;51.382;7.074;2024-01-06T12:58:46;6.60;69.80
80937;DHT22;70395;51.382;7.074;2024-01-06T13:01:12;6.60;69.80
80937;DHT22;70395;51.382;7.074;2024-01-06T13:03:38;6.60;69.70
80937;DHT22;70395;51.382;7.074;2024-01-06T13:06:04;6.50;69.50
80937;DHT22;70395;51.382;7.074;2024-01-06T13:08:30;6.50;70.30
80937;DHT22;70395;51.382;7.074;2024-01-06T13:10:56;6.50;69.80
80937;DHT22;70395;51.382;7.074;2024-01-06T13:13:22;6.50;69.80
80937;DHT22;70395;51.382;7.074;2024-01-06T13:15:48;6.50;69.90
80937;DHT22;70395;51.382;7.074;2024-01-06T13:18:14;6.50;69.80
80937;DHT22;70395;51.382;7.074;2024-01-06T13:20:42;6.50;70.30
80937;DHT22;70395;51.382;7.074;2024-01-06T13:23:09;6.50;69.40
80937;DHT22;70395;51.382;7.074;2024-01-06T13:25:37;6.50;69.50
80937;DHT22;70395;51.382;7.074;2024-01-06T13:28:05;6.50;69.60
80937;DHT22;70395;51.382;7.074;2024-01-06T13:30:32;6.50;70.40
80937;DHT22;70395;51.382;7.074;2024-01-06T13:32:58;6.50;69.80
80937;DHT22;70395;51.382;7.074;2024-01-06T13:35:25;6.50;69.60
80937;DHT22;70395;51.382;7.074;2024-01-06T13:37:52;6.50;69.60
80937;DHT22;70395;51.382;7.074;2024-01-06T13:40:19;6.50;69.60
80937;DHT22;70395;51.382;7.074;2024-01-06T13:42:49;6.40;69.60
80937;DHT22;70395;51.382;7.074;2024-01-06T13:45:19;6.50;69.70
80937;DHT22;70395;51.382;7.074;2024-01-06T13:47:45;6.50;69.90
80937;DHT22;70395;51.382;7.074;2024-01-06T13:50:12;6.40;69.80
80937;DHT22;70395;51.382;7.074;2024-01-06T13:52:41;6.40;69.80
80937;DHT22;70395;51.382;7.074;2024-01-06T13:55:07;6.50;69.80
80937;DHT22;70395;51.382;7.074;2024-01-06T13:57:34;6.40;69.70
80937;DHT22;70395;51.382;7.074;2024-01-06T14:00:00;6.30;69.60
80937;DHT22;70395;51.382;7.074;2024-01-06T14:02:26;6.30;69.50
80937;DHT22;70395;51.382;7.074;2024-01-06T14:04:52;6.30;69.60
80937;DHT22;70395;51.382;7.074;2024-01-06T14:07:18;6.30;69.70
80937;DHT22;70395;51.382;7.074;2024-01-06T14:09:45;6.30;69.70
80937;DHT22;70395;51.382;7.074;2024-01-06T14:12:11;6.30;69.60
80937;DHT22;70395;51.382;7.074;2024-01-06T14:14:39;6.20;69.50
80937;DHT22;70395;51.382;7.074;2024-01-06T14:17:07;6.30;69.80
80937;DHT22;70395;51.382;7.074;2024-01-06T14:19:33;6.20;69.80
80937;DHT22;70395;51.382;7.074;2024-01-06T14:21:59;6.20;69.90
80937;DHT22;70395;51.382;7.074;2024-01-06T14:24:25;6.20;69.80
80937;DHT22;70395;51.382;7.074;2024-01-06T14:26:53;6.20;69.90
80937;DHT22;70395;51.382;7.074;2024-01-06T14:29:20;6.20;69.90
80937;DHT22;70395;51.382;7.074;2024-01-06T14:31:46;6.20;70.00
80937;DHT22;70395;51.382;7.074;2024-01-06T14:34:13;6.20;70.10
80937;DHT22;70395;51.382;7.074;2024-01-06T14:36:39;6.20;70.20
80937;DHT22;70395;51.382;7.074;2024-01-06T14:39:15;6.20;70.20
80937;DHT22;70395;51.382;7.074;2024-01-06T14:41:42;6.20;70.10
80937;DHT22;70395;51.382;7.074;2024-01-06T14:44:08;6.20;70.10
80937;DHT22;70395;51.382;7.074;2024-01-06T14:46:37;6.30;70.10
80937;DHT22;70395;51.382;7.074;2024-01-06T14:49:03;6.30;70.00
80937;DHT22;70395;51.382;7.074;2024-01-06T14:51:29;6.20;69.80
80937;DHT22;70395;51.382;7.074;2024-01-06T14:53:55;6.10;69.70
80937;DHT22;70395;51.382;7.074;2024-01-06T14:56:22;6.20;69.90
80937;DHT22;70395;51.382;7.074;2024-01-06T14:58:49;6.20;70.00
80937;DHT22;70395;51.382;7.074;2024-01-06T15:01:18;6.20;69.90
80937;DHT22;70395;51.382;7.074;2024-01-06T15:03:44;6.10;69.90
80937;DHT22;70395;51.382;7.074;2024-01-06T15:06:10;6.10;70.00
80937;DHT22;70395;51.382;7.074;2024-01-06T15:08:35;6.10;70.20
80937;DHT22;70395;51.382;7.074;2024-01-06T15:11:01;6.10;70.30
80937;DHT22;70395;51.382;7.074;2024-01-06T15:13:28;6.10;70.20
80937;DHT22;70395;51.382;7.074;2024-01-06T15:15:54;6.20;70.10
80937;DHT22;70395;51.382;7.074;2024-01-06T15:18:20;6.10;70.00
80937;DHT22;70395;51.382;7.074;2024-01-06T15:20:46;6.00;69.80
80937;DHT22;70395;51.382;7.074;2024-01-06T15:23:12;6.00;70.00
80937;DHT22;70395;51.382;7.074;2024-01-06T15:25:38;6.00;70.10
80937;DHT22;70395;51.382;7.074;2024-01-06T15:28:05;5.90;70.00
80937;DHT22;70395;51.382;7.074;2024-01-06T15:30:31;5.90;70.30
80937;DHT22;70395;51.382;7.074;2024-01-06T15:32:57;5.90;70.30
80937;DHT22;70395;51.382;7.074;2024-01-06T15:35:23;5.90;70.30
80937;DHT22;70395;51.382;7.074;2024-01-06T15:37:48;5.80;70.10
80937;DHT22;70395;51.382;7.074;2024-01-06T15:40:14;5.80;70.20
80937;DHT22;70395;51.382;7.074;2024-01-06T15:42:41;5.80;70.30
80937;DHT22;70395;51.382;7.074;2024-01-06T15:45:08;5.80;70.30
80937;DHT22;70395;51.382;7.074;2024-01-06T15:47:37;5.70;71.10
80937;DHT22;70395;51.382;7.074;2024-01-06T15:50:04;5.70;70.40
80937;DHT22;70395;51.382;7.074;2024-01-06T15:52:33;5.70;70.50
80937;DHT22;70395;51.382;7.074;2024-01-06T15:54:59;5.70;70.60
80937;DHT22;70395;51.382;7.074;2024-01-06T15:57:25;5.70;70.80